createdAt,value
2018-09-22T00:01:28.253Z,11.17
2018-09-22T00:03:57.547Z,11.16
2018-09-22T00:06:27.047Z,11.19
2018-09-22T00:08:56.888Z,11.27
2018-09-22T00:11:25.749Z,11.29
2018-09-22T00:13:54.673Z,11.33
2018-09-22T00:16:24.355Z,11.30
2018-09-22T00:18:53.224Z,11.36
2018-09-22T00:21:23.894Z,11.29
2018-09-22T00:23:52.671Z,11.25
2018-09-22T00:26:21.896Z,11.25
2018-09-22T00:28:51.536Z,11.16
2018-09-22T00:31:19.996Z,11.17
2018-09-22T00:33:48.416Z,11.12
2018-09-22T00:36:16.889Z,10.88
2018-09-22T00:38:45.940Z,10.80
2018-09-22T00:41:14.883Z,11.05
2018-09-22T00:43:43.640Z,11.00
2018-09-22T00:46:13.309Z,10.85
2018-09-22T00:48:42.923Z,10.90
2018-09-22T00:51:11.725Z,10.91
2018-09-22T00:53:40.449Z,10.88
2018-09-22T00:56:09.288Z,10.95
2018-09-22T00:58:38.059Z,11.01
2018-09-22T01:01:07.329Z,11.01
2018-09-22T01:03:36.316Z,10.90
2018-09-22T01:06:06.417Z,10.83
2018-09-22T01:08:36.243Z,10.56
2018-09-22T01:11:05.691Z,10.70
2018-09-22T01:13:35.075Z,10.64
2018-09-22T01:16:04.420Z,10.63
2018-09-22T01:18:33.454Z,10.44
2018-09-22T01:21:02.767Z,10.45
2018-09-22T01:23:31.552Z,10.51
2018-09-22T01:26:00.349Z,10.53
2018-09-22T01:28:30.212Z,10.32
2018-09-22T01:30:58.996Z,10.41
2018-09-22T01:33:27.877Z,10.34
2018-09-22T01:35:57.355Z,10.63
2018-09-22T01:38:27.120Z,10.56
2018-09-22T01:40:57.149Z,10.63
2018-09-22T01:43:26.008Z,10.70
2018-09-22T01:45:56.015Z,10.70
2018-09-22T01:48:24.764Z,10.76
2018-09-22T01:50:54.540Z,10.69
2018-09-22T01:53:24.003Z,10.66
2018-09-22T01:55:52.857Z,10.55
2018-09-22T01:58:21.593Z,10.57
2018-09-22T02:00:51.548Z,10.73
2018-09-22T02:03:21.000Z,10.78
2018-09-22T02:05:50.913Z,10.74
2018-09-22T02:08:20.318Z,10.73
2018-09-22T02:10:49.925Z,10.82
2018-09-22T02:13:18.764Z,10.98
2018-09-22T02:15:48.337Z,10.97
2018-09-22T02:18:16.801Z,10.73
2018-09-22T02:20:46.227Z,10.64
2018-09-22T02:23:15.340Z,10.61
2018-09-22T02:25:44.495Z,10.45
2018-09-22T02:28:13.627Z,10.42
2018-09-22T02:30:42.916Z,10.37
2018-09-22T02:33:12.319Z,10.26
2018-09-22T02:35:41.079Z,10.17
2018-09-22T02:38:09.956Z,10.08
2018-09-22T02:40:39.336Z,9.86
2018-09-22T02:43:08.309Z,9.87
2018-09-22T02:45:37.608Z,9.85
2018-09-22T02:48:06.884Z,9.72
2018-09-22T02:50:35.685Z,9.78
2018-09-22T02:53:04.532Z,9.86
2018-09-22T02:55:34.681Z,9.98
2018-09-22T02:58:03.792Z,10.04
2018-09-22T03:00:32.889Z,10.09
2018-09-22T03:03:02.164Z,10.17
2018-09-22T03:05:30.621Z,10.21
2018-09-22T03:07:59.683Z,10.29
2018-09-22T03:10:28.657Z,10.36
2018-09-22T03:12:58.070Z,10.24
2018-09-22T03:15:26.818Z,10.31
2018-09-22T03:17:55.930Z,10.29
2018-09-22T03:20:24.624Z,10.38
2018-09-22T03:22:54.431Z,10.29
2018-09-22T03:25:23.937Z,10.24
2018-09-22T03:27:52.762Z,10.29
2018-09-22T03:30:21.783Z,10.26
2018-09-22T03:32:51.260Z,10.11
2018-09-22T03:35:20.829Z,10.31
2018-09-22T03:37:49.829Z,10.42
2018-09-22T03:40:19.424Z,10.43
2018-09-22T03:42:49.234Z,10.43
2018-09-22T03:45:19.687Z,10.48
2018-09-22T03:47:49.819Z,10.48
2018-09-22T03:50:19.908Z,10.41
2018-09-22T03:52:49.693Z,10.48
2018-09-22T03:55:18.130Z,10.32
2018-09-22T03:57:47.565Z,10.23
2018-09-22T04:00:16.716Z,9.87
2018-09-22T04:02:46.401Z,9.55
2018-09-22T04:05:15.335Z,9.50
2018-09-22T04:07:43.767Z,9.23
2018-09-22T04:10:14.854Z,9.13
2018-09-22T04:12:43.725Z,9.12
2018-09-22T04:15:13.220Z,9.01
2018-09-22T04:17:43.002Z,9.01
2018-09-22T04:20:11.924Z,8.93
2018-09-22T04:22:40.577Z,9.00
2018-09-22T04:25:09.888Z,9.04
2018-09-22T04:27:39.431Z,9.08
2018-09-22T04:30:08.268Z,9.00
2018-09-22T04:32:37.345Z,9.15
2018-09-22T04:35:06.521Z,9.15
2018-09-22T04:37:35.536Z,9.05
2018-09-22T04:40:05.141Z,9.01
2018-09-22T04:42:34.577Z,9.05
2018-09-22T04:45:03.638Z,8.99
2018-09-22T04:47:33.133Z,8.95
2018-09-22T04:50:02.577Z,9.07
2018-09-22T04:52:31.666Z,9.06
2018-09-22T04:55:00.493Z,9.15
2018-09-22T04:57:29.945Z,9.21
2018-09-22T04:59:59.423Z,9.01
2018-09-22T05:02:27.868Z,9.03
2018-09-22T05:04:56.882Z,8.95
2018-09-22T05:07:25.855Z,8.91
2018-09-22T05:09:54.798Z,9.00
2018-09-22T05:12:24.501Z,9.03
2018-09-22T05:14:53.797Z,9.10
2018-09-22T05:17:22.659Z,9.15
2018-09-22T05:19:51.526Z,9.18
2018-09-22T05:22:20.628Z,9.22
2018-09-22T05:24:50.514Z,9.36
2018-09-22T05:27:20.366Z,9.62
2018-09-22T05:29:49.411Z,9.46
2018-09-22T05:32:18.653Z,9.50
2018-09-22T05:34:47.809Z,9.68
2018-09-22T05:37:17.329Z,9.56
2018-09-22T05:39:46.465Z,9.57
2018-09-22T05:42:15.576Z,9.58
2018-09-22T05:44:44.576Z,9.60
2018-09-22T05:47:14.625Z,9.60
2018-09-22T05:49:43.424Z,9.66
2018-09-22T05:52:13.262Z,9.73
2018-09-22T05:54:43.456Z,9.79
2018-09-22T05:57:13.344Z,9.89
2018-09-22T05:59:43.370Z,9.89
2018-09-22T06:02:13.572Z,9.98
2018-09-22T06:04:42.392Z,10.06
2018-09-22T06:07:11.848Z,10.00
2018-09-22T06:09:40.949Z,10.10
2018-09-22T06:12:09.926Z,10.20
2018-09-22T06:14:39.002Z,10.24
2018-09-22T06:17:08.040Z,10.29
2018-09-22T06:19:37.572Z,10.40
2018-09-22T06:22:06.511Z,10.36
2018-09-22T06:24:35.670Z,10.38
2018-09-22T06:27:04.843Z,10.29
2018-09-22T06:29:33.776Z,10.28
2018-09-22T06:32:03.669Z,10.21
2018-09-22T06:34:32.294Z,10.28
2018-09-22T06:37:02.764Z,10.26
2018-09-22T06:39:31.863Z,10.29
2018-09-22T06:42:01.409Z,10.33
2018-09-22T06:44:30.642Z,10.36
2018-09-22T06:46:59.349Z,10.40
2018-09-22T06:49:28.438Z,10.59
2018-09-22T06:51:57.501Z,10.53
2018-09-22T06:54:26.373Z,10.57
2018-09-22T06:56:55.265Z,10.75
2018-09-22T06:59:24.309Z,10.69
2018-09-22T07:01:53.544Z,10.86
2018-09-22T07:04:23.256Z,11.00
2018-09-22T07:06:52.714Z,11.05
2018-09-22T07:09:21.968Z,11.15
2018-09-22T07:11:51.533Z,11.26
2018-09-22T07:14:20.568Z,11.54
2018-09-22T07:16:49.673Z,11.60
2018-09-22T07:19:19.002Z,11.52
2018-09-22T07:21:53.084Z,11.42
2018-09-22T07:24:22.449Z,11.40
2018-09-22T07:26:52.436Z,11.52
2018-09-22T07:29:21.840Z,11.67
2018-09-22T07:31:51.574Z,11.72
2018-09-22T07:34:20.113Z,11.85
2018-09-22T07:36:48.621Z,11.66
2018-09-22T07:39:18.222Z,11.85
2018-09-22T07:41:47.042Z,11.80
2018-09-22T07:44:16.320Z,11.86
2018-09-22T07:46:44.763Z,11.86
2018-09-22T07:49:14.104Z,12.07
2018-09-22T07:51:44.040Z,12.13
2018-09-22T07:54:12.977Z,12.04
2018-09-22T07:56:42.348Z,12.24
2018-09-22T07:59:11.129Z,12.26
2018-09-22T08:01:40.137Z,12.23
2018-09-22T08:04:08.949Z,12.30
2018-09-22T08:06:37.664Z,12.41
2018-09-22T08:09:08.009Z,12.58
2018-09-22T08:11:37.196Z,12.54
2018-09-22T08:14:07.147Z,12.53
2018-09-22T08:16:36.628Z,12.69
2018-09-22T08:19:05.066Z,12.92
2018-09-22T08:21:34.109Z,12.75
2018-09-22T08:24:02.851Z,12.86
2018-09-22T08:26:32.116Z,13.03
2018-09-22T08:29:00.683Z,13.00
2018-09-22T08:31:29.808Z,13.31
2018-09-22T08:33:58.584Z,13.21
2018-09-22T08:36:28.530Z,13.27
2018-09-22T08:38:57.107Z,13.46
2018-09-22T08:41:26.944Z,13.70
2018-09-22T08:43:55.476Z,13.91
2018-09-22T08:46:24.528Z,13.28
2018-09-22T08:48:53.509Z,13.26
2018-09-22T08:51:22.423Z,13.73
2018-09-22T08:53:50.909Z,13.80
2018-09-22T08:56:19.313Z,13.92
2018-09-22T08:58:47.776Z,13.59
2018-09-22T09:01:17.548Z,13.97
2018-09-22T09:03:46.726Z,14.07
2018-09-22T09:06:15.401Z,13.82
2018-09-22T09:08:43.867Z,13.85
2018-09-22T09:11:12.626Z,14.10
2018-09-22T09:13:42.250Z,14.21
2018-09-22T09:16:11.772Z,14.07
2018-09-22T09:18:41.041Z,14.09
2018-09-22T09:21:09.567Z,14.27
2018-09-22T09:23:38.553Z,13.93
2018-09-22T09:26:08.222Z,13.79
2018-09-22T09:28:37.087Z,13.79
2018-09-22T09:31:07.024Z,13.96
2018-09-22T09:33:36.757Z,13.73
2018-09-22T09:36:07.397Z,14.06
2018-09-22T09:38:36.660Z,14.16
2018-09-22T09:41:05.400Z,14.30
2018-09-22T09:43:34.214Z,14.41
2018-09-22T09:46:02.898Z,14.97
2018-09-22T09:48:32.104Z,14.84
2018-09-22T09:51:00.788Z,15.09
2018-09-22T09:53:29.933Z,15.32
2018-09-22T09:55:59.321Z,15.15
2018-09-22T09:58:28.128Z,14.92
2018-09-22T10:00:57.591Z,15.40
2018-09-22T10:03:26.601Z,15.61
2018-09-22T10:05:56.396Z,15.52
2018-09-22T10:08:25.437Z,15.54
2018-09-22T10:10:54.153Z,15.28
2018-09-22T10:13:22.895Z,15.39
2018-09-22T10:15:51.345Z,15.48
2018-09-22T10:18:20.585Z,16.21
2018-09-22T10:20:49.278Z,16.11
2018-09-22T10:23:18.480Z,15.62
2018-09-22T10:25:47.409Z,15.39
2018-09-22T10:28:17.792Z,15.80
2018-09-22T10:30:46.661Z,16.05
2018-09-22T10:33:15.713Z,15.90
2018-09-22T10:35:45.454Z,16.42
2018-09-22T10:38:13.884Z,16.31
2018-09-22T10:40:44.181Z,16.83
2018-09-22T10:43:13.092Z,16.40
2018-09-22T10:45:41.576Z,16.05
2018-09-22T10:48:10.105Z,16.24
2018-09-22T10:50:39.516Z,15.87
2018-09-22T10:53:08.017Z,16.30
2018-09-22T10:55:37.458Z,16.45
2018-09-22T10:58:06.169Z,16.28
2018-09-22T11:00:35.925Z,15.68
2018-09-22T11:03:04.702Z,15.92
2018-09-22T11:05:33.932Z,16.15
2018-09-22T11:08:03.118Z,16.45
2018-09-22T11:10:31.817Z,16.91
2018-09-22T11:13:00.784Z,16.18
2018-09-22T11:15:30.696Z,16.67
2018-09-22T11:17:59.757Z,15.99
2018-09-22T11:20:29.049Z,16.52
2018-09-22T11:22:58.547Z,16.73
2018-09-22T11:25:28.217Z,16.28
2018-09-22T11:27:57.014Z,16.76
2018-09-22T11:30:26.576Z,16.30
2018-09-22T11:32:56.180Z,15.99
2018-09-22T11:35:24.892Z,15.70
2018-09-22T11:37:53.312Z,15.96
2018-09-22T11:40:22.465Z,16.20
2018-09-22T11:42:51.166Z,16.57
2018-09-22T11:45:21.167Z,16.08
2018-09-22T11:47:50.307Z,15.77
2018-09-22T11:50:19.072Z,16.05
2018-09-22T11:52:47.904Z,15.85
2018-09-22T11:55:17.172Z,16.06
2018-09-22T11:57:47.068Z,15.91
2018-09-22T12:00:17.217Z,16.07
2018-09-22T12:02:46.398Z,15.74
2018-09-22T12:05:14.841Z,15.45
2018-09-22T12:07:43.660Z,15.45
2018-09-22T12:10:13.129Z,15.73
2018-09-22T12:12:42.312Z,15.68
2018-09-22T12:15:11.237Z,15.62
2018-09-22T12:17:41.252Z,15.73
2018-09-22T12:20:10.458Z,15.98
2018-09-22T12:22:39.766Z,15.92
2018-09-22T12:25:09.269Z,15.91
2018-09-22T12:27:38.055Z,16.12
2018-09-22T12:30:07.242Z,16.34
2018-09-22T12:32:36.590Z,16.55
2018-09-22T12:35:05.995Z,16.49
2018-09-22T12:37:35.452Z,16.87
2018-09-22T12:40:04.385Z,16.97
2018-09-22T12:42:32.802Z,17.07
2018-09-22T12:45:01.710Z,17.23
2018-09-22T12:47:31.215Z,17.41
2018-09-22T12:50:00.551Z,17.64
2018-09-22T12:52:29.339Z,17.42
2018-09-22T12:54:58.344Z,17.27
2018-09-22T12:57:27.698Z,17.38
2018-09-22T12:59:56.485Z,17.60
2018-09-22T13:02:25.488Z,17.66
2018-09-22T13:04:54.513Z,17.68
2018-09-22T13:07:23.595Z,17.45
2018-09-22T13:09:52.042Z,17.44
2018-09-22T13:12:21.761Z,17.32
2018-09-22T13:14:50.887Z,17.15
2018-09-22T13:17:19.938Z,16.66
2018-09-22T13:19:49.444Z,16.67
2018-09-22T13:22:18.888Z,16.85
2018-09-22T13:24:47.507Z,16.88
2018-09-22T13:27:16.642Z,16.91
2018-09-22T13:29:45.747Z,16.81
2018-09-22T13:32:14.541Z,16.83
2018-09-22T13:34:44.003Z,16.96
2018-09-22T13:37:13.452Z,17.14
2018-09-22T13:39:42.693Z,17.17
2018-09-22T13:42:11.151Z,17.19
2018-09-22T13:44:40.537Z,17.16
2018-09-22T13:47:09.821Z,16.88
2018-09-22T13:49:38.977Z,16.56
2018-09-22T13:52:07.867Z,16.48
2018-09-22T13:54:36.546Z,16.65
2018-09-22T13:57:05.530Z,16.53
2018-09-22T13:59:35.220Z,16.71
2018-09-22T14:02:04.736Z,16.71
2018-09-22T14:04:33.890Z,16.93
2018-09-22T14:07:03.404Z,17.00
2018-09-22T14:09:32.380Z,17.17
2018-09-22T14:12:01.730Z,17.09
2018-09-22T14:14:30.868Z,17.19
2018-09-22T14:16:59.834Z,17.20
2018-09-22T14:19:29.444Z,17.19
2018-09-22T14:21:58.164Z,17.36
2018-09-22T14:24:26.944Z,17.48
2018-09-22T14:26:55.823Z,17.50
2018-09-22T14:29:24.945Z,17.48
2018-09-22T14:31:54.865Z,17.73
2018-09-22T14:34:24.295Z,17.89
2018-09-22T14:36:53.628Z,17.98
2018-09-22T14:39:22.177Z,17.86
2018-09-22T14:41:51.207Z,17.81
2018-09-22T14:44:20.137Z,17.83
2018-09-22T14:46:49.986Z,17.84
2018-09-22T14:49:19.119Z,17.34
2018-09-22T14:51:48.392Z,17.41
2018-09-22T14:54:18.276Z,17.48
2018-09-22T14:56:47.358Z,17.42
2018-09-22T14:59:16.525Z,17.49
2018-09-22T15:01:45.985Z,17.18
2018-09-22T15:04:15.873Z,17.21
2018-09-22T15:06:44.554Z,17.08
2018-09-22T15:09:13.841Z,17.07
2018-09-22T15:11:42.261Z,16.76
2018-09-22T15:14:11.762Z,16.56
2018-09-22T15:16:40.556Z,16.52
2018-09-22T15:19:09.779Z,16.57
2018-09-22T15:21:38.322Z,16.62
2018-09-22T15:24:07.893Z,16.63
2018-09-22T15:26:37.401Z,16.50
2018-09-22T15:29:06.300Z,16.70
2018-09-22T15:31:34.810Z,16.63
2018-09-22T15:34:03.641Z,16.67
2018-09-22T15:36:32.950Z,16.50
2018-09-22T15:39:02.383Z,16.65
2018-09-22T15:41:32.327Z,16.80
2018-09-22T15:44:01.417Z,16.67
2018-09-22T15:46:30.721Z,16.87
2018-09-22T15:48:59.412Z,16.83
2018-09-22T15:51:28.053Z,16.79
2018-09-22T15:53:57.571Z,16.95
2018-09-22T15:56:26.252Z,17.03
2018-09-22T15:58:55.208Z,16.99
2018-09-22T16:01:24.683Z,17.00
2018-09-22T16:03:53.605Z,17.09
2018-09-22T16:06:22.970Z,16.97
2018-09-22T16:08:51.790Z,16.83
2018-09-22T16:11:20.591Z,16.82
2018-09-22T16:13:49.713Z,16.72
2018-09-22T16:16:18.144Z,16.72
2018-09-22T16:18:47.620Z,16.56
2018-09-22T16:21:16.939Z,16.41
2018-09-22T16:23:46.237Z,16.52
2018-09-22T16:26:14.994Z,16.60
2018-09-22T16:28:43.682Z,16.42
2018-09-22T16:31:12.338Z,16.41
2018-09-22T16:33:42.151Z,16.46
2018-09-22T16:36:10.883Z,16.27
2018-09-22T16:38:41.361Z,16.29
2018-09-22T16:41:10.194Z,16.29
2018-09-22T16:43:39.557Z,16.24
2018-09-22T16:46:08.659Z,16.28
2018-09-22T16:48:37.627Z,16.17
2018-09-22T16:51:07.201Z,16.25
2018-09-22T16:53:36.498Z,16.27
2018-09-22T16:56:06.050Z,16.01
2018-09-22T16:58:35.141Z,15.54
2018-09-22T17:01:04.836Z,15.12
2018-09-22T17:03:34.069Z,14.76
2018-09-22T17:06:03.988Z,14.40
2018-09-22T17:08:32.744Z,14.24
2018-09-22T17:11:01.836Z,14.13
2018-09-22T17:13:31.322Z,14.02
2018-09-22T17:16:00.212Z,14.03
2018-09-22T17:18:29.649Z,13.95
2018-09-22T17:20:58.667Z,13.81
2018-09-22T17:23:27.444Z,13.84
2018-09-22T17:25:56.304Z,13.81
2018-09-22T17:28:25.112Z,13.84
2018-09-22T17:30:54.105Z,13.68
2018-09-22T17:33:24.682Z,13.68
2018-09-22T17:35:53.765Z,13.63
2018-09-22T17:38:23.220Z,13.59
2018-09-22T17:40:51.694Z,13.49
2018-09-22T17:43:21.931Z,13.45
2018-09-22T17:45:51.922Z,13.45
2018-09-22T17:48:20.428Z,13.35
2018-09-22T17:50:49.693Z,13.36
2018-09-22T17:53:18.469Z,13.25
2018-09-22T17:55:47.937Z,13.23
2018-09-22T17:58:17.328Z,13.17
2018-09-22T18:00:46.545Z,13.18
2018-09-22T18:03:15.480Z,13.16
2018-09-22T18:05:44.712Z,13.10
2018-09-22T18:08:13.432Z,13.17
2018-09-22T18:10:42.145Z,13.07
2018-09-22T18:13:11.096Z,13.02
2018-09-22T18:15:40.593Z,13.07
2018-09-22T18:18:09.360Z,13.04
2018-09-22T18:20:38.352Z,13.00
2018-09-22T18:23:07.214Z,13.05
2018-09-22T18:25:36.952Z,13.00
2018-09-22T18:28:06.122Z,12.92
2018-09-22T18:30:35.589Z,12.96
2018-09-22T18:33:05.662Z,12.95
2018-09-22T18:35:34.427Z,13.00
2018-09-22T18:38:04.000Z,12.94
2018-09-22T18:40:32.455Z,12.93
2018-09-22T18:43:01.573Z,12.91
2018-09-22T18:45:30.413Z,12.85
2018-09-22T18:47:59.177Z,12.92
2018-09-22T18:50:28.236Z,12.88
2018-09-22T18:52:56.678Z,12.92
2018-09-22T18:55:25.100Z,12.96
2018-09-22T18:57:53.805Z,12.94
2018-09-22T19:00:22.208Z,12.82
2018-09-22T19:02:51.694Z,12.84
2018-09-22T19:05:20.556Z,12.52
2018-09-22T19:07:49.244Z,12.35
2018-09-22T19:10:18.132Z,12.41
2018-09-22T19:12:46.705Z,12.52
2018-09-22T19:15:47.092Z,12.56
2018-09-22T19:18:21.264Z,12.65
2018-09-22T19:20:54.123Z,12.74
2018-09-22T19:23:45.032Z,12.66
2018-09-22T19:26:16.241Z,12.66
2018-09-22T19:28:48.698Z,12.75
2018-09-22T19:31:28.328Z,12.81
2018-09-22T19:34:02.752Z,12.71
2018-09-22T19:36:35.211Z,12.68
2018-09-22T19:39:07.518Z,12.61
2018-09-22T19:41:41.721Z,12.58
2018-09-22T19:44:20.661Z,12.60
2018-09-22T19:46:59.989Z,12.64
2018-09-22T19:49:34.035Z,12.54
2018-09-22T19:52:07.953Z,12.53
2018-09-22T19:54:36.388Z,12.48
2018-09-22T19:57:05.298Z,12.57
2018-09-22T19:59:34.022Z,12.67
2018-09-22T20:02:03.059Z,12.61
2018-09-22T20:04:32.305Z,12.64
2018-09-22T20:07:01.449Z,12.66
2018-09-22T20:09:30.576Z,12.69
2018-09-22T20:11:59.822Z,12.68
2018-09-22T20:14:29.023Z,12.63
2018-09-22T20:16:57.454Z,12.58
2018-09-22T20:19:26.462Z,12.59
2018-09-22T20:21:54.875Z,12.60
2018-09-22T20:24:23.928Z,12.63
2018-09-22T20:26:53.180Z,12.65
2018-09-22T20:29:22.420Z,12.61
2018-09-22T20:31:51.324Z,12.63
2018-09-22T20:34:20.400Z,12.51
2018-09-22T20:36:49.076Z,12.52
2018-09-22T20:39:17.588Z,12.63
2018-09-22T20:41:46.329Z,12.57
2018-09-22T20:44:16.101Z,12.55
2018-09-22T20:46:45.104Z,12.30
2018-09-22T20:49:13.554Z,12.12
2018-09-22T20:51:42.407Z,12.26
2018-09-22T20:54:11.800Z,12.41
2018-09-22T20:56:40.819Z,12.39
2018-09-22T20:59:09.988Z,12.16
2018-09-22T21:01:38.642Z,12.07
2018-09-22T21:04:07.636Z,12.09
2018-09-22T21:06:36.420Z,12.18
2018-09-22T21:09:06.623Z,12.12
2018-09-22T21:11:35.583Z,11.97
2018-09-22T21:14:04.125Z,11.91
2018-09-22T21:16:33.626Z,11.98
2018-09-22T21:19:02.718Z,12.08
2018-09-22T21:21:31.767Z,12.01
2018-09-22T21:24:00.201Z,11.91
2018-09-22T21:26:28.624Z,11.96
2018-09-22T21:28:57.720Z,12.11
2018-09-22T21:31:26.260Z,12.02
2018-09-22T21:33:55.404Z,12.32
2018-09-22T21:36:23.828Z,12.16
2018-09-22T21:38:52.262Z,12.11
2018-09-22T21:41:21.853Z,12.33
2018-09-22T21:43:50.533Z,12.49
2018-09-22T21:46:19.742Z,12.61
2018-09-22T21:48:48.189Z,12.55
2018-09-22T21:51:17.129Z,12.56
2018-09-22T21:53:45.594Z,12.55
2018-09-22T21:56:15.858Z,12.56
2018-09-22T21:58:45.260Z,12.54
2018-09-22T22:01:19.121Z,12.71
2018-09-22T22:03:49.843Z,12.66
2018-09-22T22:06:18.595Z,12.61
2018-09-22T22:08:47.733Z,12.50
2018-09-22T22:11:17.069Z,12.48
2018-09-22T22:13:45.856Z,12.37
2018-09-22T22:16:14.748Z,12.41
2018-09-22T22:18:43.770Z,12.40
2018-09-22T22:21:12.433Z,12.36
2018-09-22T22:23:40.961Z,12.36
2018-09-22T22:26:10.989Z,12.33
2018-09-22T22:28:39.438Z,12.30
2018-09-22T22:31:08.706Z,12.17
2018-09-22T22:33:38.280Z,12.22
2018-09-22T22:36:06.770Z,12.15
2018-09-22T22:38:36.044Z,12.16
2018-09-22T22:41:05.024Z,12.16
2018-09-22T22:43:33.443Z,12.09
2018-09-22T22:46:02.530Z,12.12
2018-09-22T22:48:31.915Z,12.09
2018-09-22T22:51:00.360Z,11.99
2018-09-22T22:53:29.620Z,11.97
2018-09-22T22:55:58.280Z,11.98
2018-09-22T22:58:27.076Z,11.98
2018-09-22T23:00:56.789Z,12.03
2018-09-22T23:03:25.605Z,12.00
2018-09-22T23:05:54.725Z,11.96
2018-09-22T23:08:23.508Z,12.04
2018-09-22T23:10:52.121Z,12.13
2018-09-22T23:13:22.057Z,12.25
2018-09-22T23:15:50.721Z,12.28
2018-09-22T23:18:19.145Z,12.24
2018-09-22T23:20:47.831Z,12.17
2018-09-22T23:23:17.059Z,11.92
2018-09-22T23:25:46.123Z,12.07
2018-09-22T23:28:14.548Z,12.04
2018-09-22T23:30:43.104Z,12.11
2018-09-22T23:33:12.213Z,12.16
2018-09-22T23:35:41.869Z,11.91
2018-09-22T23:38:10.324Z,12.03
2018-09-22T23:40:39.471Z,12.06
2018-09-22T23:43:08.239Z,12.07
2018-09-22T23:45:37.009Z,11.89
2018-09-22T23:48:05.920Z,11.94
2018-09-22T23:50:34.365Z,11.87
2018-09-22T23:53:03.701Z,11.78
2018-09-22T23:55:32.364Z,11.78
2018-09-22T23:58:01.017Z,11.74
